Time;durP1;ratioP1;P1;durP2;ratioP2;P2;SDS_P1;SDS_P2;PMS_P1;PMS_P2;Temp;Humidity;BMP_temperature;BMP_pressure;BME280_temperature;BME280_humidity;BME280_pressure;Samples;Min_cycle;Max_cycle;Signal;HPM_P1;HPM_P2
2022/06/09 00:00:32;;;;;;;5.95;3.58;;;;;;;16.78;100.00;99196.33;1679445;84;21066;-77
2022/06/09 00:03:08;;;;;;;6.45;3.20;;;;;;;16.70;100.00;99188.33;1691365;84;21131;-78
2022/06/09 00:05:34;;;;;;;6.25;3.50;;;;;;;16.77;100.00;99197.45;1692663;84;21194;-78
2022/06/09 00:08:04;;;;;;;5.85;3.27;;;;;;;16.74;100.00;99193.98;1672365;84;21166;-77
2022/06/09 00:10:36;;;;;;;6.25;3.42;;;;;;;16.72;100.00;99195.67;1680571;84;21553;-78
2022/06/09 00:13:03;;;;;;;7.47;3.70;;;;;;;16.66;100.00;99195.60;1687316;84;21090;-78
2022/06/09 00:15:30;;;;;;;7.55;3.85;;;;;;;16.60;100.00;99190.04;1685509;84;21063;-78
2022/06/09 00:17:57;;;;;;;9.15;3.45;;;;;;;16.59;100.00;99194.47;1675414;84;21091;-78
2022/06/09 00:20:24;;;;;;;6.17;3.10;;;;;;;16.61;100.00;99190.29;1691394;84;21127;-79
2022/06/09 00:22:50;;;;;;;5.33;3.72;;;;;;;16.64;100.00;99192.95;1641148;86;21148;-78
2022/06/09 00:25:18;;;;;;;4.28;3.15;;;;;;;16.59;100.00;99193.91;1684991;84;21062;-79
2022/06/09 00:27:45;;;;;;;8.03;3.62;;;;;;;16.53;100.00;99188.88;1671632;84;21558;-79
2022/06/09 00:30:13;;;;;;;6.15;3.42;;;;;;;16.46;100.00;99191.30;1683454;84;21035;-78
2022/06/09 00:32:41;;;;;;;8.88;3.85;;;;;;;16.40;100.00;99189.30;1647427;84;21580;-79
2022/06/09 00:35:09;;;;;;;4.75;3.35;;;;;;;16.39;100.00;99187.11;1695950;84;21030;-78
2022/06/09 00:37:36;;;;;;;5.85;3.60;;;;;;;16.43;100.00;99196.33;1677406;84;21071;-79
2022/06/09 00:40:05;;;;;;;7.90;3.50;;;;;;;16.46;100.00;99187.99;1696226;84;21067;-78
2022/06/09 00:42:34;;;;;;;6.33;3.50;;;;;;;16.44;100.00;99191.61;1675687;84;21059;-78
2022/06/09 00:45:42;;;;;;;6.80;3.70;;;;;;;16.34;100.00;99188.62;1674539;84;21538;-78
2022/06/09 00:48:36;;;;;;;7.67;3.67;;;;;;;16.23;100.00;99183.20;1647718;84;21538;-78
2022/06/09 00:51:35;;;;;;;5.95;3.58;;;;;;;16.22;100.00;99180.24;1677991;84;21102;-78
2022/06/09 00:54:29;;;;;;;6.22;3.72;;;;;;;16.31;100.00;99185.16;1678577;84;21021;-78
2022/06/09 00:57:07;;;;;;;7.17;4.00;;;;;;;16.34;100.00;99187.81;1688785;84;21114;-78
2022/06/09 00:59:35;;;;;;;6.42;3.92;;;;;;;16.31;100.00;99189.28;1692091;84;21138;-78
2022/06/09 01:04:00;;;;;;;8.00;4.17;;;;;;;16.30;100.00;99184.09;1812784;79;23710;-74
2022/06/09 01:06:31;;;;;;;6.10;4.47;;;;;;;16.19;100.00;99183.60;1762975;80;21050;-74
2022/06/09 01:09:08;;;;;;;7.75;4.00;;;;;;;16.20;100.00;99189.91;1761711;81;21471;-74
2022/06/09 01:11:36;;;;;;;6.50;3.80;;;;;;;16.18;100.00;99187.50;1744371;81;21054;-74
2022/06/09 01:14:03;;;;;;;6.50;4.00;;;;;;;16.16;100.00;99190.30;1751165;81;20955;-74
2022/06/09 01:16:58;;;;;;;6.90;4.30;;;;;;;16.15;100.00;99194.20;1740949;81;21042;-74
2022/06/09 01:19:46;;;;;;;8.78;4.58;;;;;;;16.10;100.00;99188.30;1750877;81;21938;-74
2022/06/09 01:22:27;;;;;;;7.70;3.77;;;;;;;16.00;100.00;99184.48;1734453;81;21062;-73
2022/06/09 01:25:14;;;;;;;6.22;3.92;;;;;;;15.93;100.00;99189.08;1759152;81;21026;-73
2022/06/09 01:28:20;;;;;;;7.67;3.75;;;;;;;15.92;100.00;99191.57;1741846;81;21541;-73
2022/06/09 01:31:04;;;;;;;6.42;3.55;;;;;;;15.91;100.00;99190.50;1759367;81;21166;-74
2022/06/09 01:33:44;;;;;;;5.25;3.50;;;;;;;15.91;100.00;99189.13;1737352;81;21466;-73
2022/06/09 01:36:36;;;;;;;7.70;4.05;;;;;;;15.88;100.00;99182.35;1744119;81;21050;-73
2022/06/09 01:39:05;;;;;;;6.62;3.95;;;;;;;15.78;100.00;99183.22;1760577;81;21003;-73
2022/06/09 01:41:33;;;;;;;6.08;4.03;;;;;;;15.65;100.00;99186.34;1759600;80;21620;-73
2022/06/09 01:43:59;;;;;;;7.87;3.37;;;;;;;15.60;100.00;99187.03;1752173;81;21042;-73
2022/06/09 01:46:37;;;;;;;9.80;3.75;;;;;;;15.63;100.00;99185.02;1742913;81;21053;-73
2022/06/09 01:49:11;;;;;;;6.03;3.70;;;;;;;15.68;100.00;99184.89;1732814;83;21040;-73
2022/06/09 01:51:41;;;;;;;6.62;3.50;;;;;;;15.71;100.00;99185.06;1711734;81;21153;-73
2022/06/09 01:54:19;;;;;;;5.08;3.58;;;;;;;15.66;100.00;99184.41;1744874;80;21003;-72
2022/06/09 01:57:00;;;;;;;6.20;3.42;;;;;;;15.59;100.00;99188.97;1756596;81;21513;-73
2022/06/09 01:59:50;;;;;;;4.35;3.50;;;;;;;15.56;100.00;99194.28;1733663;81;21022;-73
2022/06/09 02:02:23;;;;;;;6.62;3.75;;;;;;;15.61;100.00;99196.89;1750557;81;21027;-73
2022/06/09 02:04:56;;;;;;;6.90;4.20;;;;;;;15.65;100.00;99195.13;1747224;81;21043;-73
2022/06/09 02:07:23;;;;;;;6.60;4.67;;;;;;;15.60;100.00;99196.08;1755088;81;21086;-73
2022/06/09 02:09:49;;;;;;;;;;;;;;;15.55;100.00;99194.87;1703689;82;21071;-73
2022/06/09 02:12:18;;;;;;;7.42;5.10;;;;;;;15.54;100.00;99202.03;1753149;81;20111;-73
2022/06/09 02:14:49;;;;;;;9.70;4.97;;;;;;;15.46;100.00;99204.95;1748619;81;20969;-73
2022/06/09 02:17:15;;;;;;;6.22;4.62;;;;;;;15.53;100.00;99208.63;1760737;81;20996;-73
2022/06/09 02:19:43;;;;;;;8.90;5.00;;;;;;;15.64;100.00;99205.30;1758731;81;21055;-74
2022/06/09 02:22:11;;;;;;;9.65;4.92;;;;;;;15.74;100.00;99205.00;1761373;81;21019;-73
2022/06/09 02:24:37;;;;;;;8.05;4.62;;;;;;;15.81;100.00;99209.46;1753840;81;21507;-73
2022/06/09 02:27:04;;;;;;;;;;;;;;;15.89;100.00;99206.50;1759592;81;21015;-73
2022/06/09 02:29:31;;;;;;;7.92;4.70;;;;;;;15.95;100.00;99207.95;1727141;81;20152;-73
2022/06/09 02:31:57;;;;;;;8.85;4.70;;;;;;;15.93;100.00;99211.59;1752045;81;21063;-73
2022/06/09 02:34:23;;;;;;;;;;;;;;;15.92;100.00;99209.97;1762069;81;21019;-74
2022/06/09 02:36:50;;;;;;;7.65;4.15;;;;;;;15.96;100.00;99209.58;1740566;81;20392;-73
2022/06/09 02:39:17;;;;;;;6.50;3.80;;;;;;;16.01;100.00;99212.75;1747323;81;22008;-73
2022/06/09 02:41:44;;;;;;;8.18;4.20;;;;;;;16.08;100.00;99215.83;1747749;81;21066;-73
2022/06/09 02:44:10;;;;;;;;;;;;;;;16.12;100.00;99212.10;1747908;81;21601;-74
2022/06/09 02:46:37;;;;;;;6.22;3.98;;;;;;;16.15;100.00;99214.23;1749731;81;20124;-73
2022/06/09 02:49:03;;;;;;;5.28;4.00;;;;;;;16.10;100.00;99219.87;1741568;80;21095;-73
2022/06/09 02:51:33;;;;;;;7.40;3.83;;;;;;;16.19;100.00;99215.19;1746365;81;21023;-73
2022/06/09 02:54:06;;;;;;;5.83;3.72;;;;;;;16.31;100.00;99215.37;1679195;85;21630;-73
2022/06/09 02:56:33;;;;;;;6.33;3.98;;;;;;;16.48;100.00;99222.80;1761277;81;21063;-72
2022/06/09 02:58:59;;;;;;;4.90;3.80;;;;;;;16.57;100.00;99222.29;1752038;81;21047;-73
2022/06/09 03:01:26;;;;;;;6.35;4.12;;;;;;;16.66;100.00;99229.14;1744628;81;22056;-73
2022/06/09 03:03:54;;;;;;;6.33;4.28;;;;;;;16.75;100.00;99227.21;1740029;81;21039;-73
2022/06/09 03:06:20;;;;;;;10.15;4.83;;;;;;;16.87;100.00;99225.97;1725957;82;21122;-72
2022/06/09 03:08:48;;;;;;;7.95;4.10;;;;;;;17.04;100.00;99226.53;1722895;81;21098;-73
2022/06/09 03:11:14;;;;;;;6.95;4.00;;;;;;;17.22;100.00;99219.27;1724136;80;21035;-73
2022/06/09 03:13:41;;;;;;;7.92;4.00;;;;;;;17.40;100.00;99220.84;1738554;82;21055;-73
2022/06/09 03:16:07;;;;;;;6.35;3.87;;;;;;;17.55;100.00;99226.38;1741017;82;21895;-73
2022/06/09 03:18:34;;;;;;;10.15;4.20;;;;;;;17.70;100.00;99222.30;1727817;82;21071;-73
2022/06/09 03:21:03;;;;;;;5.00;3.87;;;;;;;17.88;100.00;99220.52;1730173;82;21594;-73
2022/06/09 03:23:31;;;;;;;6.42;4.17;;;;;;;18.08;100.00;99221.68;1729457;82;21574;-73
2022/06/09 03:25:58;;;;;;;7.42;3.98;;;;;;;18.25;100.00;99224.32;1728128;82;21015;-73
2022/06/09 03:28:24;;;;;;;6.25;4.25;;;;;;;18.44;100.00;99223.87;1725675;82;20995;-73
2022/06/09 03:30:50;;;;;;;5.42;3.87;;;;;;;18.66;100.00;99225.52;1727396;82;21707;-73
2022/06/09 03:33:17;;;;;;;7.58;4.45;;;;;;;18.89;100.00;99224.00;1739215;82;21553;-73
2022/06/09 03:35:43;;;;;;;5.30;3.62;;;;;;;19.11;100.00;99223.63;1725323;82;21106;-73
2022/06/09 03:38:10;;;;;;;4.97;3.40;;;;;;;19.36;100.00;99223.92;1740721;82;21540;-73
2022/06/09 03:40:37;;;;;;;5.25;3.80;;;;;;;19.58;100.00;99208.11;1723675;82;21398;-73
2022/06/09 03:43:04;;;;;;;7.20;3.92;;;;;;;19.74;100.00;99207.08;1738806;82;21038;-72
2022/06/09 03:45:32;;;;;;;5.58;3.50;;;;;;;19.94;100.00;99211.46;1733964;82;21055;-72
2022/06/09 03:47:59;;;;;;;7.25;3.62;;;;;;;20.13;100.00;99211.66;1742796;82;21027;-72
2022/06/09 03:50:28;;;;;;;7.65;3.37;;;;;;;20.35;100.00;99203.72;1736896;82;21114;-73
2022/06/09 03:52:56;;;;;;;5.35;3.47;;;;;;;20.62;100.00;99206.85;1713782;82;21050;-73
2022/06/09 03:55:23;;;;;;;6.97;3.95;;;;;;;20.88;100.00;99199.50;1728774;82;21043;-72
2022/06/09 03:57:51;;;;;;;5.28;3.10;;;;;;;21.16;100.00;99208.04;1732720;82;21431;-73
2022/06/09 04:00:24;;;;;;;7.08;3.70;;;;;;;21.45;100.00;99204.06;1741103;80;21039;-73
2022/06/09 04:02:51;;;;;;;4.92;3.22;;;;;;;21.68;100.00;99200.87;1740894;81;21569;-73
2022/06/09 04:05:18;;;;;;;6.85;3.42;;;;;;;21.92;100.00;99200.50;1739887;82;21070;-73
2022/06/09 04:07:46;;;;;;;5.92;3.27;;;;;;;22.07;100.00;99206.61;1739468;82;21039;-74
2022/06/09 04:10:22;;;;;;;5.50;3.50;;;;;;;22.01;100.00;99198.33;1737187;82;21075;-73
2022/06/09 04:12:50;;;;;;;6.90;3.45;;;;;;;21.99;100.00;99200.67;1744738;82;21035;-73
2022/06/09 04:15:17;;;;;;;5.62;3.15;;;;;;;22.10;100.00;99196.19;1731712;82;21592;-74
2022/06/09 04:17:45;;;;;;;7.58;3.02;;;;;;;22.32;100.00;99193.52;1708346;82;21189;-74
2022/06/09 04:20:18;;;;;;;6.17;3.02;;;;;;;22.63;100.00;99190.42;1730448;82;21039;-74
2022/06/09 04:22:44;;;;;;;7.20;3.22;;;;;;;22.94;100.00;99195.03;1735167;82;21479;-74
2022/06/09 04:25:11;;;;;;;6.65;3.10;;;;;;;23.20;100.00;99192.37;1734188;82;21038;-73
2022/06/09 04:27:39;;;;;;;8.80;3.27;;;;;;;23.44;100.00;99198.19;1741204;82;21613;-74
2022/06/09 04:30:07;;;;;;;4.50;2.98;;;;;;;23.67;100.00;99192.02;1725543;82;21074;-73
2022/06/09 04:32:35;;;;;;;4.85;3.10;;;;;;;23.76;100.00;99192.59;1739729;82;21518;-73
2022/06/09 04:35:01;;;;;;;7.83;2.80;;;;;;;23.76;100.00;99192.59;1744686;82;21020;-73
2022/06/09 04:40:13;;;;;;;3.72;2.95;;;;;;;23.84;100.00;99190.14;1735987;82;20999;-72
2022/06/09 04:42:39;;;;;;;5.08;2.77;;;;;;;23.98;100.00;99185.39;1739939;82;21035;-74
2022/06/09 04:45:07;;;;;;;6.37;2.42;;;;;;;24.20;100.00;99186.73;1746125;82;21047;-73
2022/06/09 04:47:35;;;;;;;5.20;2.30;;;;;;;24.40;100.00;99189.41;1709779;83;21003;-74
2022/06/09 04:50:03;;;;;;;3.83;2.30;;;;;;;24.55;100.00;99180.85;1732001;82;21601;-75
2022/06/09 04:52:29;;;;;;;5.87;2.15;;;;;;;24.75;100.00;99187.08;1723230;82;20984;-74
2022/06/09 04:54:56;;;;;;;4.92;1.90;;;;;;;24.99;100.00;99187.98;1731131;82;21569;-74
2022/06/09 04:57:23;;;;;;;4.58;2.35;;;;;;;25.28;100.00;99184.92;1741448;82;21042;-73
2022/06/09 04:59:49;;;;;;;3.83;1.87;;;;;;;25.61;100.00;99184.07;1731369;82;21723;-74
2022/06/09 05:02:16;;;;;;;4.70;2.17;;;;;;;25.92;100.00;99184.11;1722519;83;21562;-73
2022/06/09 05:04:42;;;;;;;5.70;2.22;;;;;;;26.20;100.00;99183.75;1727441;82;21067;-74
2022/06/09 05:07:09;;;;;;;6.62;2.10;;;;;;;26.47;100.00;99182.89;1728446;80;21038;-74
2022/06/09 05:09:36;;;;;;;4.97;1.80;;;;;;;26.72;100.00;99184.40;1740136;82;21027;-73
2022/06/09 05:12:04;;;;;;;7.70;1.90;;;;;;;26.95;100.00;99177.95;1741371;82;21604;-72
2022/06/09 05:14:32;;;;;;;5.83;1.55;;;;;;;27.16;100.00;99178.01;1732622;82;21032;-73
2022/06/09 05:16:59;;;;;;;3.98;2.22;;;;;;;27.36;100.00;99175.63;1721315;82;21082;-73
2022/06/09 05:19:26;;;;;;;5.53;2.10;;;;;;;27.52;100.00;99181.69;1728778;82;21027;-73
2022/06/09 05:21:53;;;;;;;3.60;1.70;;;;;;;27.45;98.70;99176.09;1729166;80;21019;-74
2022/06/09 05:24:20;;;;;;;6.03;2.00;;;;;;;27.43;100.00;99176.23;1730277;82;21545;-73
2022/06/09 05:26:47;;;;;;;3.65;1.85;;;;;;;27.55;100.00;99174.49;1732303;82;21679;-72
2022/06/09 05:29:13;;;;;;;4.95;2.40;;;;;;;27.75;99.68;99175.69;1705398;82;20967;-73
2022/06/09 05:31:41;;;;;;;3.40;1.85;;;;;;;27.93;99.05;99179.88;1728173;82;21027;-74
2022/06/09 05:34:09;;;;;;;3.83;2.45;;;;;;;27.94;93.40;99176.69;1729289;82;21042;-73
2022/06/09 05:36:37;;;;;;;3.90;2.85;;;;;;;27.98;94.76;99178.89;1725168;80;21067;-72
2022/06/09 05:47:21;;;;;;;2.85;1.92;;;;;;;28.22;89.75;99182.06;1721343;82;21003;-71
2022/06/09 05:49:48;;;;;;;4.28;2.20;;;;;;;28.32;82.30;99172.84;1726926;82;20991;-71
2022/06/09 05:52:18;;;;;;;7.03;4.83;;;;;;;28.49;83.19;99178.98;1710842;84;20975;-72
2022/06/09 05:54:45;;;;;;;7.35;3.00;;;;;;;28.62;83.96;99173.97;1704839;84;21480;-71
2022/06/09 05:57:12;;;;;;;5.03;1.90;;;;;;;28.78;83.67;99174.91;1708181;84;20999;-72
2022/06/09 05:59:39;;;;;;;2.10;1.00;;;;;;;28.90;77.47;99182.88;1707625;84;21086;-70
2022/06/09 06:02:08;;;;;;;3.70;1.25;;;;;;;29.02;77.93;99180.99;1698282;84;20988;-70
2022/06/09 06:04:35;;;;;;;3.15;0.80;;;;;;;29.14;73.37;99182.53;1718909;83;21668;-70
2022/06/09 06:07:02;;;;;;;1.45;0.80;;;;;;;29.24;76.89;99181.67;1678251;85;21121;-71
2022/06/09 06:09:30;;;;;;;1.75;0.80;;;;;;;29.32;73.77;99188.86;1683663;84;21104;-70
2022/06/09 06:11:56;;;;;;;2.67;0.90;;;;;;;29.40;72.61;99186.81;1706396;84;21041;-70
2022/06/09 06:14:23;;;;;;;1.67;0.70;;;;;;;29.46;65.93;99189.37;1705865;84;21124;-71
2022/06/09 06:16:50;;;;;;;2.22;0.80;;;;;;;29.55;68.34;99193.89;1704130;83;21108;-72
2022/06/09 06:19:18;;;;;;;2.83;1.05;;;;;;;29.65;62.67;99186.03;1703808;84;21037;-70
2022/06/09 06:21:47;;;;;;;4.58;1.20;;;;;;;29.62;65.56;99186.83;1689043;84;21168;-70
2022/06/09 06:24:14;;;;;;;3.20;1.17;;;;;;;29.60;64.76;99185.86;1698314;84;21544;-70
2022/06/09 06:26:41;;;;;;;2.90;1.12;;;;;;;29.69;66.18;99176.95;1687063;84;21081;-70
2022/06/09 06:29:12;;;;;;;4.08;1.30;;;;;;;29.82;65.76;99181.48;1685611;84;21077;-70
2022/06/09 06:31:39;;;;;;;4.55;1.30;;;;;;;29.90;62.76;99183.82;1660288;85;21148;-71
2022/06/09 06:38:23;;;;;;;3.83;1.15;;;;;;;30.00;51.09;99180.75;1798332;79;22997;-69
2022/06/09 06:40:51;;;;;;;6.58;1.10;;;;;;;29.87;54.17;99179.64;1753765;80;21063;-70
2022/06/09 06:43:17;;;;;;;3.02;0.90;;;;;;;29.87;51.31;99181.84;1728985;81;21079;-70
2022/06/09 06:45:44;;;;;;;5.08;1.30;;;;;;;29.92;55.45;99186.22;1750360;81;21539;-71
2022/06/09 06:48:10;;;;;;;2.70;1.17;;;;;;;29.91;55.14;99184.02;1758178;81;21049;-71
2022/06/09 06:50:38;;;;;;;3.17;1.20;;;;;;;29.92;50.57;99173.59;1675854;85;21059;-72
2022/06/09 06:53:05;;;;;;;4.10;1.35;;;;;;;29.89;53.79;99179.44;1706807;83;21062;-71
2022/06/09 06:55:31;;;;;;;5.05;1.22;;;;;;;29.86;54.18;99178.07;1676965;83;21126;-71
2022/06/09 06:57:57;;;;;;;4.00;1.47;;;;;;;29.85;51.72;99177.27;1704009;84;21110;-72
2022/06/09 07:00:24;;;;;;;2.33;1.00;;;;;;;29.84;54.58;99174.84;1702202;82;21074;-71
2022/06/09 07:02:51;;;;;;;1.70;0.93;;;;;;;29.82;54.63;99180.08;1707414;83;21098;-72
2022/06/09 07:05:19;;;;;;;4.17;1.55;;;;;;;29.77;52.13;99173.49;1695230;84;21093;-71
2022/06/09 07:07:47;;;;;;;2.47;1.20;;;;;;;29.73;54.96;99173.52;1704730;83;21011;-71
2022/06/09 07:10:13;;;;;;;1.80;1.10;;;;;;;29.75;53.00;99171.13;1703974;83;21079;-71
2022/06/09 07:12:40;;;;;;;2.60;1.07;;;;;;;29.74;55.52;99177.13;1706460;83;21664;-70
2022/06/09 07:15:08;;;;;;;3.50;1.27;;;;;;;29.75;62.85;99173.13;1693307;83;21981;-71
2022/06/09 07:17:35;;;;;;;2.95;1.00;;;;;;;29.82;59.27;99174.47;1701288;83;21070;-71
2022/06/09 07:20:03;;;;;;;4.22;0.90;;;;;;;29.83;55.36;99175.44;1703922;83;21114;-71
2022/06/09 07:22:30;;;;;;;2.58;0.93;;;;;;;29.83;50.94;99169.83;1705842;84;21108;-70
2022/06/09 07:24:57;;;;;;;3.22;1.22;;;;;;;29.81;49.60;99174.27;1706125;83;21061;-70
2022/06/09 07:27:24;;;;;;;5.62;1.90;;;;;;;29.84;54.43;99177.06;1701229;84;21600;-70
2022/06/09 07:29:50;;;;;;;2.90;1.05;;;;;;;29.88;51.66;99176.44;1726507;82;21569;-70
2022/06/09 07:32:17;;;;;;;2.25;0.85;;;;;;;29.93;51.09;99178.01;1688257;83;21019;-70
2022/06/09 07:34:44;;;;;;;1.60;1.00;;;;;;;29.95;49.16;99183.98;1726650;82;21023;-70
2022/06/09 07:37:11;;;;;;;3.42;1.10;;;;;;;29.89;49.50;99187.06;1715485;82;21064;-70
2022/06/09 07:39:41;;;;;;;2.25;1.00;;;;;;;29.83;53.65;99183.85;1702866;82;21012;-70
2022/06/09 07:42:06;;;;;;;4.00;1.52;;;;;;;29.85;49.52;99180.08;1744671;82;21362;-71
2022/06/09 07:44:33;;;;;;;1.85;0.80;;;;;;;29.84;51.25;99185.48;1725277;81;21064;-71
2022/06/09 07:46:59;;;;;;;2.22;0.90;;;;;;;29.80;55.71;99190.89;1746548;81;21078;-69
2022/06/09 07:49:26;;;;;;;4.42;0.93;;;;;;;29.84;55.68;99193.07;1705296;83;21632;-71
2022/06/09 07:51:52;;;;;;;2.30;0.80;;;;;;;29.92;53.01;99185.63;1735164;81;21043;-70
2022/06/09 07:54:19;;;;;;;2.25;0.60;;;;;;;30.00;48.64;99191.97;1721707;82;21009;-70
2022/06/09 07:56:45;;;;;;;2.12;1.10;;;;;;;30.04;44.66;99188.53;1743208;81;21043;-70
2022/06/09 07:59:11;;;;;;;2.52;0.80;;;;;;;29.96;43.95;99186.39;1737516;81;21033;-71
2022/06/09 08:01:39;;;;;;;3.95;1.00;;;;;;;29.77;45.43;99184.72;1737864;81;21151;-71
2022/06/09 08:04:06;;;;;;;1.87;0.78;;;;;;;29.62;45.32;99186.83;1746981;82;21463;-70
2022/06/09 08:06:32;;;;;;;1.87;0.60;;;;;;;29.53;46.86;99185.91;1746312;82;21090;-71
2022/06/09 08:08:59;;;;;;;4.00;0.80;;;;;;;29.50;47.35;99184.53;1736647;81;20975;-71
2022/06/09 08:11:30;;;;;;;3.80;0.98;;;;;;;29.53;44.14;99175.30;1745165;81;21048;-70
2022/06/09 08:13:58;;;;;;;4.00;0.78;;;;;;;29.59;43.22;99175.04;1742532;81;20992;-70
2022/06/09 08:16:25;;;;;;;2.42;0.50;;;;;;;29.73;43.84;99183.34;1724260;81;21554;-70
2022/06/09 08:18:54;;;;;;;2.87;1.00;;;;;;;29.85;43.03;99178.67;1727791;81;20971;-70
2022/06/09 08:21:20;;;;;;;7.75;0.90;;;;;;;29.96;43.53;99186.99;1728705;82;21047;-70
2022/06/09 08:23:47;;;;;;;1.70;0.70;;;;;;;30.04;43.92;99186.50;1743416;81;21494;-71
2022/06/09 08:26:15;;;;;;;4.05;0.80;;;;;;;30.13;41.85;99169.19;1736900;81;21025;-71
2022/06/09 08:28:42;;;;;;;2.10;0.70;;;;;;;30.08;40.00;99184.45;1743228;81;21003;-70
2022/06/09 08:31:08;;;;;;;2.35;0.98;;;;;;;29.99;39.64;99186.96;1745731;81;21003;-70
2022/06/09 08:33:35;;;;;;;3.27;0.80;;;;;;;29.90;39.71;99183.82;1739228;81;21377;-71
2022/06/09 08:36:02;;;;;;;3.27;0.80;;;;;;;29.92;43.02;99187.03;1733254;82;21036;-71
2022/06/09 08:38:29;;;;;;;3.00;0.80;;;;;;;30.04;41.56;99191.34;1749568;81;21077;-71
2022/06/09 08:41:35;;;;;;;2.87;0.65;;;;;;;30.10;42.43;99191.07;1723095;81;21567;-71
2022/06/09 08:44:23;;;;;;;1.00;0.50;;;;;;;30.04;40.96;99182.92;1751199;81;21499;-70
2022/06/09 08:47:07;;;;;;;2.95;0.70;;;;;;;29.78;40.35;99181.51;1751284;81;21081;-70
2022/06/09 08:50:04;;;;;;;1.15;0.50;;;;;;;29.53;41.66;99186.52;1755118;81;21034;-70
2022/06/09 08:52:54;;;;;;;2.55;0.72;;;;;;;29.27;44.81;99183.67;1743838;81;21031;-71
2022/06/09 08:55:43;;;;;;;3.87;0.62;;;;;;;29.13;43.77;99176.13;1757364;80;21117;-71
2022/06/09 08:58:21;;;;;;;1.50;0.55;;;;;;;29.17;45.12;99174.70;1728965;82;21571;-70
2022/06/09 09:01:08;;;;;;;1.35;0.70;;;;;;;29.24;44.17;99185.87;1753575;80;21015;-72
2022/06/09 09:03:48;;;;;;;4.80;0.88;;;;;;;29.16;41.79;99180.91;1748947;81;21014;-72
2022/06/09 09:06:26;;;;;;;2.60;0.90;;;;;;;28.99;42.27;99185.21;1767801;80;21410;-69
2022/06/09 09:08:55;;;;;;;5.90;0.90;;;;;;;28.88;42.79;99185.86;1757524;81;21079;-68
2022/06/09 09:11:44;;;;;;;1.77;0.70;;;;;;;28.91;44.12;99183.67;1729395;81;21058;-68
2022/06/09 09:14:15;;;;;;;2.92;0.70;;;;;;;29.04;43.27;99172.19;1735322;81;21016;-69
2022/06/09 09:17:06;;;;;;;2.25;0.95;;;;;;;29.05;44.18;99171.77;1753368;81;21026;-68
2022/06/09 09:19:53;;;;;;;1.20;0.55;;;;;;;29.10;47.35;99171.34;1744579;80;21007;-70
2022/06/09 09:22:59;;;;;;;1.95;0.70;;;;;;;29.25;44.79;99176.86;1747824;81;21554;-69
2022/06/09 09:25:50;;;;;;;2.95;1.00;;;;;;;29.32;42.64;99174.84;1691588;83;21112;-69
2022/06/09 09:28:28;;;;;;;5.80;1.00;;;;;;;29.39;42.72;99175.40;1680033;85;21045;-69
2022/06/09 09:31:21;;;;;;;1.55;0.80;;;;;;;29.44;42.21;99172.17;1710920;82;21688;-69
2022/06/09 09:33:48;;;;;;;1.50;0.80;;;;;;;29.47;42.69;99176.35;1713599;83;21069;-69
2022/06/09 09:36:25;;;;;;;1.80;0.60;;;;;;;29.49;44.58;99176.73;1720850;83;21043;-71
2022/06/09 09:39:00;;;;;;;4.03;0.88;;;;;;;29.51;44.71;99174.92;1707333;83;21092;-70
2022/06/09 09:41:37;;;;;;;3.27;0.80;;;;;;;29.53;41.92;99168.28;1743172;81;21046;-69
2022/06/09 09:44:24;;;;;;;3.42;0.90;;;;;;;29.59;45.10;99165.23;1723498;81;21049;-69
2022/06/09 09:47:00;;;;;;;1.95;0.90;;;;;;;29.67;45.17;99163.97;1745578;82;21127;-70
2022/06/09 09:49:31;;;;;;;1.85;0.80;;;;;;;29.75;47.12;99166.91;1735007;82;21518;-70
2022/06/09 09:51:58;;;;;;;2.72;0.98;;;;;;;29.81;47.54;99165.84;1725590;81;21066;-71
2022/06/09 09:54:37;;;;;;;1.60;0.90;;;;;;;29.83;42.75;99164.84;1734498;82;21554;-72
2022/06/09 09:57:19;;;;;;;2.12;0.80;;;;;;;29.76;42.31;99149.48;1734526;81;21111;-70
2022/06/09 09:59:49;;;;;;;3.98;0.90;;;;;;;29.77;45.06;99161.67;1740409;82;20983;-70
2022/06/09 10:08:38;;;;;;;2.30;0.75;;;;;;;29.70;41.95;99151.11;1733475;82;20979;-69
2022/06/09 10:14:41;;;;;;;2.65;1.07;;;;;;;29.52;40.78;99156.88;1742518;81;21043;-69
2022/06/09 10:17:51;;;;;;;4.85;1.25;;;;;;;29.51;41.97;99156.06;1740595;81;21007;-68
2022/06/09 10:20:22;;;;;;;1.02;0.70;;;;;;;29.59;42.55;99153.41;1721981;82;21019;-70
2022/06/09 10:23:09;;;;;;;3.55;1.00;;;;;;;29.67;40.76;99151.34;1736771;82;21021;-69
2022/06/09 10:25:54;;;;;;;2.25;0.80;;;;;;;29.71;41.57;99144.30;1717178;82;21086;-69
2022/06/09 10:29:04;;;;;;;1.90;0.80;;;;;;;29.80;39.85;99146.02;1722659;81;21072;-69
2022/06/09 10:32:06;;;;;;;2.02;0.90;;;;;;;29.89;40.46;99134.55;1714290;82;21673;-69
2022/06/09 10:35:02;;;;;;;1.98;1.02;;;;;;;29.91;40.73;99140.53;1733011;81;21019;-70
2022/06/09 10:37:56;;;;;;;3.15;0.80;;;;;;;29.92;40.52;99144.14;1728263;82;21069;-70
2022/06/09 10:43:47;;;;;;;5.17;0.90;;;;;;;29.70;43.43;99139.89;1674766;85;21135;-75
2022/06/09 10:46:31;;;;;;;2.05;0.70;;;;;;;29.55;40.77;99138.61;1662282;84;21131;-75
2022/06/09 10:55:27;;;;;;;3.83;1.10;;;;;;;29.42;43.97;99129.11;1644480;86;21016;-81
2022/06/09 10:58:03;;;;;;;5.08;1.00;;;;;;;29.50;42.32;99128.45;1612128;87;21645;-76
2022/06/09 11:00:34;;;;;;;2.33;0.97;;;;;;;29.56;43.93;99128.20;1642094;86;21049;-78
2022/06/09 11:03:06;;;;;;;2.12;0.90;;;;;;;29.71;41.79;99126.07;1638750;86;21555;-80
2022/06/09 11:06:10;;;;;;;2.60;0.95;;;;;;;29.83;41.36;99122.77;1635404;86;21007;-79
2022/06/09 11:08:57;;;;;;;3.35;0.85;;;;;;;29.95;41.00;99124.46;1610288;87;21175;-82
2022/06/09 11:11:48;;;;;;;3.00;0.95;;;;;;;30.11;40.65;99124.68;1636349;86;21949;-76
2022/06/09 11:14:23;;;;;;;2.02;0.90;;;;;;;30.17;41.68;99120.83;1636756;86;21124;-74
2022/06/09 11:17:04;;;;;;;4.60;1.00;;;;;;;30.23;40.82;99116.94;1638358;86;21151;-75
2022/06/09 11:20:04;;;;;;;1.67;0.95;;;;;;;30.25;39.53;99112.53;1633345;86;21148;-76
2022/06/09 11:22:51;;;;;;;3.17;0.70;;;;;;;30.29;37.98;99118.87;1635859;86;21160;-74
2022/06/09 11:25:45;;;;;;;4.70;1.00;;;;;;;30.31;41.74;99118.46;1637311;86;21112;-80
2022/06/09 11:28:26;;;;;;;3.45;0.90;;;;;;;30.30;40.71;99118.27;1638010;87;21088;-77
2022/06/09 11:39:38;;;;;;;;;;;;;;;30.30;39.33;99116.26;1801224;78;22961;-70
2022/06/09 11:42:29;;;;;;;1.98;0.80;;;;;;;30.25;39.71;99118.14;1743871;80;20130;-71
2022/06/09 11:44:58;;;;;;;2.12;0.70;;;;;;;30.37;39.22;99125.20;1744692;81;21019;-72
2022/06/09 11:47:28;;;;;;;2.92;0.75;;;;;;;30.36;38.59;99118.78;1731524;80;21205;-71
2022/06/09 11:49:57;;;;;;;3.90;0.90;;;;;;;30.28;40.96;99110.88;1726978;81;21762;-71
2022/06/09 11:52:29;;;;;;;2.60;0.80;;;;;;;30.26;39.25;99112.69;1713533;82;21070;-72
2022/06/09 11:55:08;;;;;;;2.27;0.70;;;;;;;30.31;40.92;99110.84;1690090;83;21450;-70
2022/06/09 11:57:46;;;;;;;1.65;0.90;;;;;;;30.36;38.70;99112.41;1679701;83;21069;-70
2022/06/09 12:00:30;;;;;;;2.67;1.00;;;;;;;30.35;39.04;99116.41;1665876;84;21050;-69
2022/06/09 12:03:15;;;;;;;2.50;0.90;;;;;;;30.32;37.44;99110.23;1677724;83;21083;-70
2022/06/09 12:06:00;;;;;;;2.92;0.65;;;;;;;30.19;38.28;99107.16;1696341;83;21485;-69
2022/06/09 12:08:40;;;;;;;2.72;0.80;;;;;;;30.13;37.67;99108.23;1675089;84;21077;-70
2022/06/09 12:11:18;;;;;;;3.65;0.90;;;;;;;30.18;36.75;99109.00;1688549;83;20987;-71
2022/06/09 12:14:03;;;;;;;4.10;0.90;;;;;;;30.21;38.04;99105.35;1690422;83;21058;-71
2022/06/09 12:16:39;;;;;;;2.58;0.93;;;;;;;30.29;40.20;99111.84;1684485;83;21084;-71
2022/06/09 12:19:22;;;;;;;2.35;0.80;;;;;;;30.38;39.22;99107.95;1692208;83;21504;-71
2022/06/09 12:21:55;;;;;;;4.90;0.90;;;;;;;30.48;39.83;99107.66;1684275;84;21679;-71
2022/06/09 12:31:30;;;;;;;4.10;0.80;;;;;;;30.71;40.36;99099.34;1775845;79;23390;-70
2022/06/09 12:40:46;;;;;;;2.40;1.00;;;;;;;30.80;38.98;99101.01;1803959;79;22905;-70
2022/06/09 12:43:35;;;;;;;4.40;1.30;;;;;;;30.67;39.15;99107.02;1746723;81;21505;-70
2022/06/09 12:46:19;;;;;;;1.77;0.95;;;;;;;30.47;39.90;99101.84;1750638;80;20955;-69
2022/06/09 12:48:46;;;;;;;3.25;1.17;;;;;;;30.18;41.00;99098.57;1744842;80;21570;-70
2022/06/09 12:51:22;;;;;;;3.50;1.10;;;;;;;29.97;41.65;99105.19;1738788;81;21030;-70
2022/06/09 12:54:03;;;;;;;7.17;1.15;;;;;;;29.73;42.31;99102.00;1667677;81;68540;-76
2022/06/09 13:00:34;;;;;;;3.98;1.62;;;;;;;29.36;46.84;99104.73;1778942;79;22852;-69